createdAt,value
2019-04-27T00:01:23.294Z,7.23
2019-04-27T00:06:29.788Z,8.13
2019-04-27T00:11:45.481Z,6.90
2019-04-27T00:17:12.910Z,7.30
2019-04-27T00:22:28.455Z,8.23
2019-04-27T00:27:33.934Z,8.40
2019-04-27T00:32:39.888Z,7.83
2019-04-27T00:37:54.922Z,8.20
2019-04-27T00:43:00.255Z,9.33
2019-04-27T00:48:05.891Z,8.93
2019-04-27T00:53:16.764Z,8.47
2019-04-27T00:58:33.840Z,8.50
2019-04-27T01:04:03.627Z,8.83
2019-04-27T01:09:13.361Z,9.63
2019-04-27T01:14:19.107Z,8.90
2019-04-27T01:19:24.584Z,9.03
2019-04-27T01:24:30.724Z,9.63
2019-04-27T01:29:36.757Z,9.23
2019-04-27T01:34:42.229Z,10.63
2019-04-27T01:39:48.597Z,10.97
2019-04-27T01:44:55.104Z,10.57
2019-04-27T01:50:00.641Z,9.37
2019-04-27T01:55:08.649Z,10.10
2019-04-27T02:00:40.469Z,11.43
2019-04-27T02:05:56.162Z,12.23
2019-04-27T02:11:03.581Z,13.27
2019-04-27T02:16:09.419Z,13.23
2019-04-27T02:21:14.872Z,10.23
2019-04-27T02:26:21.562Z,12.80
2019-04-27T02:31:35.871Z,15.00
2019-04-27T02:36:41.278Z,13.97
2019-04-27T02:41:49.885Z,14.40
2019-04-27T02:46:55.365Z,14.80
2019-04-27T02:52:09.546Z,12.97
2019-04-27T02:57:15.417Z,12.10
2019-04-27T03:02:45.474Z,13.73
2019-04-27T03:07:50.924Z,12.57
2019-04-27T03:13:03.820Z,13.90
2019-04-27T03:18:13.982Z,12.00
2019-04-27T03:23:20.014Z,12.30
2019-04-27T03:28:26.131Z,11.77
2019-04-27T03:33:32.890Z,14.67
2019-04-27T03:38:39.858Z,13.20
2019-04-27T03:43:45.501Z,12.23
2019-04-27T03:48:51.861Z,12.03
2019-04-27T03:54:12.642Z,13.90
2019-04-27T03:59:42.856Z,14.30
2019-04-27T04:04:50.714Z,12.97
2019-04-27T04:09:55.586Z,15.13
2019-04-27T04:15:00.988Z,20.03
2019-04-27T04:20:10.132Z,15.03
2019-04-27T04:25:16.565Z,14.67
2019-04-27T04:30:22.748Z,16.17
2019-04-27T04:35:32.439Z,16.40
2019-04-27T04:40:41.906Z,17.20
2019-04-27T04:45:56.480Z,17.20
2019-04-27T04:51:02.336Z,19.03
2019-04-27T04:56:08.581Z,20.77
2019-04-27T05:01:16.915Z,18.40
2019-04-27T05:06:25.616Z,17.53
2019-04-27T05:11:31.142Z,16.83
2019-04-27T05:16:39.093Z,18.47
2019-04-27T05:21:45.681Z,20.10
2019-04-27T05:26:51.631Z,22.93
2019-04-27T05:31:59.177Z,21.00
2019-04-27T05:37:05.724Z,18.87
2019-04-27T05:42:16.969Z,19.97
2019-04-27T05:47:43.361Z,22.00
2019-04-27T05:52:49.648Z,18.60
2019-04-27T05:57:59.165Z,19.77
2019-04-27T06:03:08.985Z,21.23
2019-04-27T06:08:14.330Z,21.00
2019-04-27T06:13:20.124Z,20.20
2019-04-27T06:18:27.073Z,21.00
2019-04-27T06:23:33.083Z,19.00
2019-04-27T06:28:53.780Z,18.53
2019-04-27T06:34:01.042Z,19.83
2019-04-27T06:39:09.926Z,22.50
2019-04-27T06:44:15.554Z,21.17
2019-04-27T06:49:20.880Z,18.97
2019-04-27T06:54:28.682Z,22.83
2019-04-27T06:59:33.806Z,20.73
2019-04-27T07:04:41.868Z,16.90
2019-04-27T07:09:49.286Z,17.43
2019-04-27T07:14:55.196Z,15.93
2019-04-27T07:20:02.613Z,17.20
2019-04-27T07:25:09.067Z,15.70
2019-04-27T07:30:15.670Z,17.43
2019-04-27T07:35:22.725Z,18.67
2019-04-27T07:40:30.340Z,21.07
2019-04-27T07:45:39.578Z,19.57
2019-04-27T07:50:46.240Z,21.00
2019-04-27T07:55:51.489Z,24.00
2019-04-27T08:00:57.122Z,20.90
2019-04-27T08:06:02.602Z,21.67
2019-04-27T08:11:08.846Z,22.20
2019-04-27T08:16:15.429Z,20.37
2019-04-27T08:21:20.950Z,21.73
2019-04-27T08:26:32.377Z,20.47
2019-04-27T08:31:55.351Z,21.27
2019-04-27T08:37:00.854Z,24.03
2019-04-27T08:42:06.570Z,21.90
2019-04-27T08:47:15.168Z,22.13
2019-04-27T08:52:20.620Z,21.07
2019-04-27T08:57:25.852Z,20.83
2019-04-27T09:02:44.437Z,22.40
2019-04-27T09:07:59.779Z,19.37
2019-04-27T09:13:15.704Z,22.70
2019-04-27T09:18:23.051Z,19.77
2019-04-27T09:23:28.763Z,19.50
2019-04-27T09:28:34.015Z,26.10
2019-04-27T09:33:39.520Z,23.97
2019-04-27T09:38:46.507Z,21.07
2019-04-27T09:43:53.133Z,23.73
2019-04-27T09:48:58.539Z,20.87
2019-04-27T09:54:05.869Z,19.57
2019-04-27T09:59:11.845Z,21.93
2019-04-27T10:04:21.125Z,19.27
2019-04-27T10:09:29.519Z,19.93
2019-04-27T10:14:34.011Z,22.07
2019-04-27T10:19:39.276Z,20.00
2019-04-27T10:24:44.909Z,20.20
2019-04-27T10:29:50.438Z,17.77
2019-04-27T10:34:56.214Z,14.80
2019-04-27T10:40:01.576Z,17.70
2019-04-27T10:45:13.724Z,18.43
2019-04-27T10:50:19.999Z,19.37
2019-04-27T10:55:26.200Z,18.33
2019-04-27T11:00:39.864Z,18.87
2019-04-27T11:06:05.996Z,16.77
2019-04-27T11:11:12.472Z,15.50
2019-04-27T11:16:20.287Z,16.17
2019-04-27T11:21:26.235Z,15.97
2019-04-27T11:26:33.278Z,16.87
2019-04-27T11:31:38.542Z,15.13
2019-04-27T11:36:55.946Z,16.10
2019-04-27T11:42:01.363Z,14.70
2019-04-27T11:47:06.847Z,16.57
2019-04-27T11:52:16.202Z,13.10
2019-04-27T11:57:28.500Z,12.83
2019-04-27T12:02:35.801Z,17.23
2019-04-27T12:07:47.871Z,13.20
2019-04-27T12:12:56.324Z,15.63
2019-04-27T12:18:02.577Z,13.03
2019-04-27T12:23:07.976Z,13.47
2019-04-27T12:28:23.569Z,13.73
2019-04-27T12:33:30.412Z,14.80
2019-04-27T12:38:36.646Z,13.67
2019-04-27T12:43:46.739Z,11.80
2019-04-27T12:48:55.314Z,16.60
2019-04-27T12:54:08.932Z,13.27
2019-04-27T12:59:32.058Z,9.47
2019-04-27T13:04:38.415Z,10.50
2019-04-27T13:09:46.046Z,9.57
2019-04-27T13:14:51.634Z,8.67
2019-04-27T13:19:57.376Z,6.67
2019-04-27T13:25:02.698Z,5.83
2019-04-27T13:30:10.616Z,5.13
2019-04-27T13:35:16.565Z,5.10
2019-04-27T13:40:22.497Z,7.00
2019-04-27T13:45:38.627Z,7.40
2019-04-27T13:50:47.990Z,5.13
2019-04-27T13:55:56.613Z,5.47
2019-04-27T14:01:02.846Z,10.03
2019-04-27T14:06:08.446Z,6.13
2019-04-27T14:11:15.555Z,5.00
2019-04-27T14:16:21.753Z,5.80
2019-04-27T14:21:34.413Z,5.83
2019-04-27T14:26:40.795Z,5.77
2019-04-27T14:31:49.695Z,7.43
2019-04-27T14:36:58.752Z,7.10
2019-04-27T14:42:04.577Z,6.70
2019-04-27T14:47:13.371Z,11.23
2019-04-27T14:52:20.370Z,12.73
2019-04-27T14:57:29.189Z,10.97
2019-04-27T15:02:35.028Z,12.17
2019-04-27T15:07:40.500Z,12.13
2019-04-27T15:12:45.821Z,11.03
2019-04-27T15:17:51.240Z,12.20
2019-04-27T15:22:57.940Z,11.33
2019-04-27T15:28:12.197Z,11.03
2019-04-27T15:33:36.213Z,13.70
2019-04-27T15:38:51.200Z,11.13
2019-04-27T15:43:55.394Z,12.80
2019-04-27T15:49:03.173Z,11.67
2019-04-27T15:54:12.012Z,13.03
2019-04-27T15:59:21.125Z,13.60
2019-04-27T16:04:28.239Z,12.40
2019-04-27T16:09:33.625Z,15.27
2019-04-27T16:14:40.983Z,12.17
2019-04-27T16:19:50.231Z,13.50
2019-04-27T16:24:58.120Z,13.00
2019-04-27T16:30:09.584Z,11.83
2019-04-27T16:35:14.049Z,10.83
2019-04-27T16:40:24.459Z,8.93
2019-04-27T16:45:28.768Z,7.10
2019-04-27T16:50:34.217Z,7.67
2019-04-27T16:55:40.311Z,7.60
2019-04-27T17:00:47.644Z,6.93
2019-04-27T17:05:53.199Z,7.37
2019-04-27T17:11:08.047Z,7.97
2019-04-27T17:16:18.867Z,6.13
2019-04-27T17:21:25.717Z,8.13
2019-04-27T17:26:31.586Z,5.77
2019-04-27T17:31:40.282Z,6.30
2019-04-27T17:36:48.466Z,7.67
2019-04-27T17:41:55.368Z,6.63
2019-04-27T17:47:01.651Z,6.60
2019-04-27T17:52:08.777Z,7.33
2019-04-27T17:57:17.953Z,6.87
2019-04-27T18:02:23.827Z,6.97
2019-04-27T18:07:34.870Z,8.03
2019-04-27T18:12:39.026Z,8.27
2019-04-27T18:17:50.090Z,8.50
2019-04-27T18:22:58.934Z,7.53
2019-04-27T18:28:15.992Z,6.50
2019-04-27T18:33:18.547Z,9.17
2019-04-27T18:38:25.645Z,4.40
2019-04-27T18:43:31.187Z,1.80
2019-04-27T18:49:01.320Z,2.17
2019-04-27T18:54:08.146Z,1.60
2019-04-27T18:59:14.718Z,3.27
2019-04-27T19:04:20.242Z,1.50
2019-04-27T19:09:25.680Z,2.40
2019-04-27T19:14:31.346Z,1.40
2019-04-27T19:19:36.607Z,1.30
2019-04-27T19:24:42.118Z,1.17
2019-04-27T19:29:51.643Z,1.87
2019-04-27T19:34:59.342Z,1.23
2019-04-27T19:40:05.432Z,1.47
2019-04-27T19:45:13.345Z,2.00
2019-04-27T19:50:19.640Z,2.33
2019-04-27T19:55:25.880Z,1.90
2019-04-27T20:00:48.762Z,1.23
2019-04-27T20:05:54.597Z,2.00
2019-04-27T20:11:00.107Z,1.60
2019-04-27T20:16:05.647Z,1.57
2019-04-27T20:21:12.402Z,1.70
2019-04-27T20:26:17.919Z,3.17
2019-04-27T20:31:23.244Z,2.23
2019-04-27T20:36:28.452Z,2.33
2019-04-27T20:41:34.348Z,3.53
2019-04-27T20:46:41.569Z,2.60
2019-04-27T20:52:04.905Z,2.30
2019-04-27T20:57:13.832Z,2.73
2019-04-27T21:02:52.105Z,2.77
2019-04-27T21:08:01.549Z,2.90
2019-04-27T21:13:06.869Z,3.03
2019-04-27T21:18:14.431Z,2.97
2019-04-27T21:23:21.064Z,2.00
2019-04-27T21:28:26.609Z,2.07
2019-04-27T21:33:34.216Z,4.10
2019-04-27T21:38:41.138Z,2.77
2019-04-27T21:43:46.848Z,2.00
2019-04-27T21:48:53.151Z,2.33
2019-04-27T21:54:04.002Z,3.17
2019-04-27T21:59:10.729Z,4.10
2019-04-27T22:04:16.758Z,14.47
2019-04-27T22:09:22.576Z,5.30
2019-04-27T22:14:27.863Z,4.10
2019-04-27T22:19:34.800Z,8.17
2019-04-27T22:24:42.846Z,3.87
2019-04-27T22:29:47.609Z,4.90
2019-04-27T22:34:53.724Z,4.63
2019-04-27T22:40:18.439Z,2.77
2019-04-27T22:45:27.838Z,2.50
2019-04-27T22:50:33.072Z,2.40
2019-04-27T22:55:57.443Z,1.60
2019-04-27T23:01:12.129Z,2.43
2019-04-27T23:06:17.915Z,1.83
2019-04-27T23:11:23.404Z,1.73
2019-04-27T23:16:31.934Z,1.50
2019-04-27T23:21:38.211Z,1.40
2019-04-27T23:26:44.072Z,1.40
2019-04-27T23:31:58.323Z,5.70
2019-04-27T23:37:03.710Z,4.57
2019-04-27T23:42:09.049Z,4.73
2019-04-27T23:47:14.458Z,4.53
2019-04-27T23:52:25.611Z,1.80
2019-04-27T23:57:31.670Z,2.80
